Time;durP1;ratioP1;P1;durP2;ratioP2;P2;SDS_P1;SDS_P2;PMS_P1;PMS_P2;Temp;Humidity;BMP_temperature;BMP_pressure;BME280_temperature;BME280_humidity;BME280_pressure;Samples;Min_cycle;Max_cycle;Signal;HPM_P1;HPM_P2
2021/09/17 00:00:32;;;;;;;31.75;26.25;;;14.20;94.40;;;;;;5033176;28;20136;-71
2021/09/17 00:03:00;;;;;;;29.95;25.17;;;14.10;94.60;;;;;;5039965;28;20044;-71
2021/09/17 00:05:27;;;;;;;32.33;27.00;;;14.10;94.90;;;;;;5035331;28;20045;-71
2021/09/17 00:07:55;;;;;;;31.17;24.48;;;14.10;94.90;;;;;;5032359;28;20132;-71
2021/09/17 00:10:22;;;;;;;26.23;21.75;;;14.10;95.10;;;;;;5031261;28;20394;-71
2021/09/17 00:12:50;;;;;;;32.60;24.42;;;14.10;95.10;;;;;;5026634;28;20045;-72
2021/09/17 00:15:17;;;;;;;28.80;22.95;;;14.10;95.00;;;;;;5027264;28;20478;-72
2021/09/17 00:17:44;;;;;;;30.50;24.10;;;14.00;94.80;;;;;;5033948;28;20063;-72
2021/09/17 00:20:12;;;;;;;28.27;22.10;;;14.00;95.20;;;;;;5015735;28;20045;-72
2021/09/17 00:22:39;;;;;;;28.35;22.13;;;14.00;95.00;;;;;;5029599;28;20526;-72
2021/09/17 00:25:07;;;;;;;24.35;20.83;;;14.00;95.20;;;;;;5037188;28;20077;-72
2021/09/17 00:27:34;;;;;;;24.83;20.27;;;13.90;95.20;;;;;;5011889;28;20208;-72
2021/09/17 00:30:03;;;;;;;26.35;22.75;;;13.90;94.90;;;;;;5027770;28;20050;-72
2021/09/17 00:32:31;;;;;;;25.75;20.05;;;13.90;95.10;;;;;;5013303;28;20049;-72
2021/09/17 00:34:59;;;;;;;23.70;18.40;;;13.90;95.40;;;;;;5012390;28;20058;-72
2021/09/17 00:37:26;;;;;;;23.48;17.85;;;13.80;95.50;;;;;;5029288;28;20046;-72
2021/09/17 00:39:53;;;;;;;21.75;18.10;;;13.80;95.50;;;;;;5034121;28;20046;-72
2021/09/17 00:42:23;;;;;;;22.42;17.25;;;13.80;95.30;;;;;;5037927;28;20058;-72
2021/09/17 00:44:50;;;;;;;20.50;17.33;;;13.80;95.40;;;;;;5028747;28;20055;-72
2021/09/17 00:47:17;;;;;;;19.55;16.17;;;13.80;95.40;;;;;;5032835;28;20041;-72
2021/09/17 00:49:44;;;;;;;21.15;15.77;;;13.80;95.30;;;;;;5035028;28;20503;-72
2021/09/17 00:52:11;;;;;;;21.08;15.65;;;13.70;95.00;;;;;;5032691;28;20045;-72
2021/09/17 00:54:38;;;;;;;23.63;16.40;;;13.70;95.10;;;;;;5034998;28;20392;-72
2021/09/17 00:57:06;;;;;;;22.23;16.42;;;13.70;95.40;;;;;;5011800;28;20516;-72
2021/09/17 00:59:33;;;;;;;19.75;16.50;;;13.70;95.30;;;;;;5032804;28;20124;-72
2021/09/17 01:02:00;;;;;;;19.92;16.55;;;13.60;95.30;;;;;;5031610;28;20504;-73
2021/09/17 01:04:27;;;;;;;22.23;16.90;;;13.60;95.30;;;;;;5045226;28;20060;-73
2021/09/17 01:06:54;;;;;;;21.60;17.70;;;13.60;95.40;;;;;;5036549;28;20124;-72
2021/09/17 01:09:21;;;;;;;20.80;16.90;;;13.60;95.60;;;;;;5048096;28;20493;-72
2021/09/17 01:11:48;;;;;;;23.40;16.17;;;13.60;95.50;;;;;;5032550;28;20048;-70
2021/09/17 01:14:16;;;;;;;20.27;16.20;;;13.50;95.70;;;;;;5033098;28;20498;-73
2021/09/17 01:16:43;;;;;;;20.27;14.93;;;13.50;95.50;;;;;;5033763;28;20493;-71
2021/09/17 01:19:10;;;;;;;20.30;16.30;;;13.50;95.60;;;;;;5013253;28;20389;-72
2021/09/17 01:21:37;;;;;;;21.83;16.70;;;13.50;95.40;;;;;;5030277;28;20051;-72
2021/09/17 01:24:04;;;;;;;19.88;15.90;;;13.40;95.60;;;;;;5034433;28;20083;-71
2021/09/17 01:26:31;;;;;;;21.95;15.57;;;13.40;95.80;;;;;;5060513;28;20064;-72
2021/09/17 01:28:58;;;;;;;21.23;15.82;;;13.40;95.80;;;;;;5072566;28;20423;-72
2021/09/17 01:31:28;;;;;;;22.08;16.08;;;13.40;95.60;;;;;;5047138;28;20522;-72
2021/09/17 01:34:02;;;;;;;22.02;15.40;;;13.40;95.90;;;;;;5081891;28;20167;-72
2021/09/17 01:36:29;;;;;;;22.67;15.10;;;13.40;95.90;;;;;;5057362;28;20082;-73
2021/09/17 01:38:59;;;;;;;20.08;14.57;;;13.30;96.10;;;;;;5078161;28;20041;-72
2021/09/17 01:41:26;;;;;;;20.33;14.38;;;13.30;96.20;;;;;;5057975;28;20499;-72
2021/09/17 01:43:53;;;;;;;21.42;15.27;;;13.30;96.10;;;;;;5073530;28;20051;-71
2021/09/17 01:46:21;;;;;;;20.45;13.32;;;13.30;96.10;;;;;;5042882;28;20055;-72
2021/09/17 01:48:48;;;;;;;19.08;13.05;;;13.30;96.20;;;;;;5079109;28;20047;-72
2021/09/17 01:51:17;;;;;;;17.08;12.80;;;13.30;96.40;;;;;;5061930;28;20212;-72
2021/09/17 01:53:44;;;;;;;20.80;13.60;;;13.30;96.30;;;;;;5065704;28;20662;-71
2021/09/17 01:56:12;;;;;;;17.35;12.70;;;13.30;96.30;;;;;;5064089;28;20685;-71
2021/09/17 01:58:39;;;;;;;15.55;11.68;;;13.30;96.40;;;;;;5066413;28;20048;-72
2021/09/17 02:01:06;;;;;;;14.65;11.88;;;13.30;96.80;;;;;;5078110;28;20047;-72
2021/09/17 02:03:33;;;;;;;19.65;12.15;;;13.30;96.90;;;;;;5071751;28;20036;-72
2021/09/17 02:06:00;;;;;;;19.63;12.52;;;13.30;97.00;;;;;;5050906;28;20081;-72
2021/09/17 02:08:27;;;;;;;13.93;10.18;;;13.30;97.00;;;;;;5072050;28;20075;-72
2021/09/17 02:10:54;;;;;;;18.05;11.23;;;13.30;97.10;;;;;;5077669;28;20124;-73
2021/09/17 02:13:21;;;;;;;19.33;12.07;;;13.30;97.30;;;;;;5073004;28;20129;-72
2021/09/17 02:15:49;;;;;;;14.73;9.73;;;13.30;97.20;;;;;;5055759;28;20045;-72
2021/09/17 02:18:16;;;;;;;12.73;10.35;;;13.40;97.10;;;;;;5059213;28;20127;-73
2021/09/17 02:20:43;;;;;;;15.27;11.68;;;13.40;97.00;;;;;;5078330;28;20051;-73
2021/09/17 02:23:11;;;;;;;16.73;9.38;;;13.30;97.30;;;;;;5062460;28;20502;-72
2021/09/17 02:25:39;;;;;;;18.25;11.15;;;13.30;97.20;;;;;;5065638;28;20062;-72
2021/09/17 02:28:06;;;;;;;15.20;10.55;;;13.30;97.70;;;;;;5067506;28;20048;-72
2021/09/17 02:30:33;;;;;;;20.40;11.60;;;13.40;97.70;;;;;;5072658;28;20044;-72
2021/09/17 02:33:00;;;;;;;16.02;9.73;;;13.40;97.60;;;;;;5054603;28;20044;-73
2021/09/17 02:35:27;;;;;;;17.35;10.95;;;13.40;97.30;;;;;;5046127;28;20051;-72
2021/09/17 02:38:03;;;;;;;13.43;10.27;;;13.40;97.60;;;;;;5072331;28;20071;-74
2021/09/17 02:40:30;;;;;;;14.65;9.73;;;13.40;97.40;;;;;;5061137;28;20048;-78
2021/09/17 02:42:58;;;;;;;13.50;10.25;;;13.40;97.50;;;;;;5073544;28;20343;-71
2021/09/17 02:45:25;;;;;;;18.27;11.38;;;13.50;97.70;;;;;;5066012;28;20427;-72
2021/09/17 02:47:52;;;;;;;17.58;12.25;;;13.50;97.70;;;;;;5077344;28;20052;-73
2021/09/17 02:50:19;;;;;;;17.70;11.70;;;13.50;97.70;;;;;;5071817;28;20076;-72
2021/09/17 02:52:49;;;;;;;17.02;11.02;;;13.60;97.50;;;;;;5065205;28;20052;-72
2021/09/17 02:55:16;;;;;;;19.90;12.50;;;13.60;97.50;;;;;;5072852;28;20131;-73
2021/09/17 02:57:44;;;;;;;17.25;12.20;;;13.60;97.30;;;;;;5076118;28;20175;-73
2021/09/17 03:00:12;;;;;;;20.65;11.63;;;13.60;97.10;;;;;;5078869;28;20051;-72
2021/09/17 03:02:42;;;;;;;16.15;11.43;;;13.60;97.00;;;;;;5064120;28;20053;-74
2021/09/17 03:05:10;;;;;;;18.45;13.07;;;13.50;97.00;;;;;;5064450;28;20463;-74
2021/09/17 03:07:37;;;;;;;16.17;12.07;;;13.50;97.30;;;;;;5056523;28;20060;-74
2021/09/17 03:10:05;;;;;;;18.13;11.35;;;13.50;97.40;;;;;;5055559;28;20098;-74
2021/09/17 03:12:32;;;;;;;16.77;11.88;;;13.50;97.50;;;;;;5063514;28;20134;-75
2021/09/17 03:15:00;;;;;;;16.63;11.65;;;13.40;97.30;;;;;;5052529;28;20040;-73
2021/09/17 03:17:27;;;;;;;17.17;12.65;;;13.40;97.20;;;;;;5069210;28;20131;-73
2021/09/17 03:19:54;;;;;;;18.23;12.13;;;13.50;97.10;;;;;;5070796;28;20044;-74
2021/09/17 03:22:21;;;;;;;15.98;12.13;;;13.40;97.00;;;;;;5070213;28;20044;-73
2021/09/17 03:24:48;;;;;;;17.50;11.27;;;13.40;97.10;;;;;;5054521;28;20048;-73
2021/09/17 03:27:16;;;;;;;17.92;11.45;;;13.30;96.80;;;;;;5061181;28;20056;-73
2021/09/17 03:29:46;;;;;;;14.90;10.68;;;13.30;96.80;;;;;;5055765;28;20132;-73
2021/09/17 03:32:13;;;;;;;18.23;11.38;;;13.30;96.70;;;;;;5056700;28;20485;-73
2021/09/17 03:34:40;;;;;;;16.88;11.80;;;13.20;96.70;;;;;;5075155;28;20060;-73
2021/09/17 03:37:07;;;;;;;19.45;11.85;;;13.20;96.80;;;;;;5056126;28;20143;-73
2021/09/17 03:39:34;;;;;;;18.15;12.20;;;13.20;96.90;;;;;;5075654;28;20529;-73
2021/09/17 03:42:02;;;;;;;19.35;11.15;;;13.10;97.20;;;;;;5065088;28;20097;-73
2021/09/17 03:44:29;;;;;;;18.48;12.30;;;13.10;97.50;;;;;;5072995;28;20472;-73
2021/09/17 03:46:56;;;;;;;16.08;11.00;;;13.10;97.20;;;;;;5059868;28;20088;-73
2021/09/17 03:49:23;;;;;;;13.93;11.10;;;13.10;96.90;;;;;;5056902;28;20494;-73
2021/09/17 03:51:50;;;;;;;18.02;12.68;;;13.10;97.10;;;;;;5073428;28;20114;-73
2021/09/17 03:54:17;;;;;;;17.83;12.75;;;13.10;97.10;;;;;;5070243;28;20044;-72
2021/09/17 03:56:44;;;;;;;18.23;12.50;;;13.10;97.00;;;;;;5063110;28;20468;-73
2021/09/17 03:59:12;;;;;;;17.55;12.07;;;13.10;97.20;;;;;;5081664;28;20087;-73
2021/09/17 04:01:40;;;;;;;15.88;11.70;;;13.10;97.30;;;;;;5074002;28;20488;-73
2021/09/17 04:04:07;;;;;;;18.42;12.20;;;13.00;96.90;;;;;;5047406;28;20143;-72
2021/09/17 04:06:34;;;;;;;20.42;13.35;;;13.10;97.30;;;;;;5058757;28;20049;-73
2021/09/17 04:09:01;;;;;;;15.65;11.20;;;13.00;97.50;;;;;;5071021;28;20044;-74
2021/09/17 04:11:28;;;;;;;21.70;12.60;;;13.00;97.30;;;;;;5057064;28;20175;-72
2021/09/17 04:13:55;;;;;;;15.02;11.90;;;12.90;97.20;;;;;;5067600;28;20052;-72
2021/09/17 04:16:22;;;;;;;17.92;12.52;;;12.90;97.00;;;;;;5062007;28;20140;-71
2021/09/17 04:18:49;;;;;;;14.90;12.00;;;12.90;97.00;;;;;;5077598;28;20432;-71
2021/09/17 04:21:17;;;;;;;18.98;11.75;;;12.90;96.90;;;;;;5045282;28;20381;-71
2021/09/17 04:23:44;;;;;;;16.63;12.00;;;12.90;97.00;;;;;;5053653;28;20068;-72
2021/09/17 04:26:12;;;;;;;15.38;11.30;;;12.90;96.60;;;;;;5053212;28;20551;-71
2021/09/17 04:28:39;;;;;;;16.75;11.07;;;12.80;96.60;;;;;;5071979;28;20087;-72
2021/09/17 04:31:06;;;;;;;23.25;11.60;;;12.70;97.10;;;;;;5070713;28;20048;-71
2021/09/17 04:33:34;;;;;;;14.82;10.75;;;12.70;96.80;;;;;;5037844;28;20507;-72
2021/09/17 04:36:03;;;;;;;15.38;10.82;;;12.70;96.50;;;;;;5055204;28;20052;-71
2021/09/17 04:38:31;;;;;;;18.73;12.23;;;12.70;96.80;;;;;;5053776;28;20508;-71
2021/09/17 04:40:58;;;;;;;20.23;12.73;;;12.60;96.80;;;;;;5076696;28;20127;-71
2021/09/17 04:43:27;;;;;;;16.13;12.07;;;12.60;97.00;;;;;;5053548;28;20055;-72
2021/09/17 04:45:54;;;;;;;17.10;12.50;;;12.60;96.90;;;;;;5063928;28;20108;-72
2021/09/17 04:48:21;;;;;;;14.00;9.98;;;12.50;96.80;;;;;;5065018;28;20075;-72
2021/09/17 04:50:48;;;;;;;20.58;11.68;;;12.50;96.90;;;;;;5080191;28;20373;-72
2021/09/17 04:53:15;;;;;;;13.85;9.90;;;12.50;97.00;;;;;;5076497;28;20048;-72
2021/09/17 04:55:45;;;;;;;17.88;11.30;;;12.50;96.60;;;;;;5072273;28;20073;-72
2021/09/17 04:58:12;;;;;;;15.23;10.82;;;12.40;96.70;;;;;;5069747;28;20488;-71
2021/09/17 05:00:39;;;;;;;13.55;9.25;;;12.40;96.40;;;;;;5076816;28;20669;-72
2021/09/17 05:03:07;;;;;;;12.63;10.35;;;12.40;96.40;;;;;;5058006;28;20044;-72
2021/09/17 05:05:34;;;;;;;14.68;11.38;;;12.30;96.40;;;;;;5073442;28;20087;-72
2021/09/17 05:08:01;;;;;;;15.52;10.55;;;12.30;96.20;;;;;;5069285;28;20342;-72
2021/09/17 05:10:28;;;;;;;14.55;11.43;;;12.30;96.60;;;;;;5071988;28;20054;-72
2021/09/17 05:12:55;;;;;;;18.10;11.68;;;12.20;96.60;;;;;;5072433;28;20404;-72
2021/09/17 05:15:22;;;;;;;18.60;10.77;;;12.20;96.60;;;;;;5072852;28;20086;-72
2021/09/17 05:17:49;;;;;;;12.75;9.18;;;12.20;96.50;;;;;;5069292;28;20098;-71
2021/09/17 05:20:18;;;;;;;15.65;10.30;;;12.20;96.30;;;;;;5059762;28;20048;-73
2021/09/17 05:22:45;;;;;;;15.40;11.20;;;12.20;96.60;;;;;;5071092;28;20037;-72
2021/09/17 05:25:12;;;;;;;13.48;9.80;;;12.20;96.80;;;;;;5069625;28;20135;-71
2021/09/17 05:27:39;;;;;;;18.92;11.73;;;12.20;96.40;;;;;;5073753;28;20154;-71
2021/09/17 05:30:07;;;;;;;17.70;10.27;;;12.20;96.80;;;;;;5065417;28;20128;-71
2021/09/17 05:32:34;;;;;;;14.25;10.07;;;12.10;96.10;;;;;;5054045;28;20501;-71
2021/09/17 05:35:02;;;;;;;16.48;11.20;;;12.10;96.40;;;;;;5018744;28;20060;-71
2021/09/17 05:37:29;;;;;;;13.98;11.23;;;12.10;97.30;;;;;;5057979;28;20487;-71
2021/09/17 05:39:56;;;;;;;16.73;11.88;;;12.10;97.40;;;;;;5055756;28;20047;-72
2021/09/17 05:42:23;;;;;;;15.40;11.60;;;12.20;97.30;;;;;;5079572;28;20131;-72
2021/09/17 05:44:50;;;;;;;17.02;11.13;;;12.10;96.80;;;;;;5071627;28;20080;-72
2021/09/17 05:47:18;;;;;;;18.27;11.93;;;12.10;96.90;;;;;;5056345;28;20052;-72
2021/09/17 05:49:45;;;;;;;14.52;11.27;;;12.10;96.60;;;;;;5075112;28;20044;-72
2021/09/17 05:52:12;;;;;;;16.63;11.63;;;12.10;96.60;;;;;;5075860;28;20097;-72
2021/09/17 05:54:39;;;;;;;15.43;9.45;;;12.10;96.70;;;;;;5081645;28;20483;-72
2021/09/17 05:57:06;;;;;;;15.45;10.60;;;12.10;96.60;;;;;;5060048;28;20051;-72
2021/09/17 05:59:33;;;;;;;18.42;12.63;;;12.10;96.40;;;;;;5041735;28;20047;-72
2021/09/17 06:02:00;;;;;;;20.25;12.90;;;12.10;96.60;;;;;;5072841;28;20560;-73
2021/09/17 06:04:27;;;;;;;21.02;13.00;;;12.10;96.70;;;;;;5076064;28;20151;-72
2021/09/17 06:06:54;;;;;;;17.45;12.45;;;12.10;97.10;;;;;;5077695;28;20048;-72
2021/09/17 06:09:21;;;;;;;22.58;13.10;;;12.10;96.50;;;;;;5073031;28;20058;-72
2021/09/17 06:11:48;;;;;;;21.13;12.77;;;12.10;97.10;;;;;;5064516;28;20511;-72
2021/09/17 06:14:15;;;;;;;19.02;12.23;;;12.20;97.50;;;;;;5072965;28;20052;-72
2021/09/17 06:16:42;;;;;;;21.73;13.00;;;12.20;96.80;;;;;;5072394;28;20063;-71
2021/09/17 06:19:09;;;;;;;19.58;11.68;;;12.20;96.80;;;;;;5077754;28;20847;-72
2021/09/17 06:21:36;;;;;;;18.50;11.77;;;12.20;96.90;;;;;;5042928;28;20040;-71
2021/09/17 06:24:04;;;;;;;18.13;11.55;;;12.20;96.80;;;;;;5067719;28;20046;-72
2021/09/17 06:26:31;;;;;;;19.25;12.43;;;12.30;96.70;;;;;;5066704;28;20052;-73
2021/09/17 06:28:59;;;;;;;67.88;50.25;;;12.30;97.20;;;;;;5073239;28;20051;-71
2021/09/17 06:31:27;;;;;;;124.65;93.65;;;12.30;97.00;;;;;;5089088;28;20048;-75
2021/09/17 06:33:54;;;;;;;93.35;69.22;;;12.30;96.60;;;;;;5071309;28;20496;-74
2021/09/17 06:36:21;;;;;;;84.68;62.15;;;12.40;96.80;;;;;;5066324;28;20072;-75
2021/09/17 06:38:48;;;;;;;32.50;24.48;;;12.50;96.80;;;;;;5075759;28;20047;-79
2021/09/17 06:41:15;;;;;;;38.83;27.02;;;12.50;97.00;;;;;;5071488;28;20095;-78
2021/09/17 06:43:42;;;;;;;23.48;16.23;;;12.50;97.20;;;;;;5047746;28;20474;-73
2021/09/17 06:46:09;;;;;;;21.10;13.20;;;12.60;98.90;;;;;;5082228;28;20127;-76
2021/09/17 06:48:36;;;;;;;22.48;13.25;;;12.80;99.90;;;;;;5071090;28;20083;-72
2021/09/17 06:51:03;;;;;;;18.83;12.15;;;12.90;99.90;;;;;;5075525;28;20048;-74
2021/09/17 06:53:30;;;;;;;19.38;12.80;;;13.00;99.80;;;;;;5071956;28;20048;-75
2021/09/17 06:55:57;;;;;;;164.85;139.07;;;13.20;99.90;;;;;;5061715;28;20083;-74
2021/09/17 06:58:31;;;;;;;68.90;53.95;;;13.30;99.70;;;;;;5059534;28;20056;-80
2021/09/17 07:00:59;;;;;;;21.30;16.35;;;13.40;99.20;;;;;;5064567;28;20045;-74
2021/09/17 07:03:27;;;;;;;18.85;13.38;;;13.50;99.20;;;;;;5073651;28;20119;-73
2021/09/17 07:05:54;;;;;;;14.20;11.77;;;13.60;99.00;;;;;;5071773;28;20056;-75
2021/09/17 07:08:21;;;;;;;17.98;11.48;;;13.70;98.70;;;;;;5054977;28;20044;-73
2021/09/17 07:10:48;;;;;;;15.95;10.18;;;13.80;99.00;;;;;;5070035;28;20080;-74
2021/09/17 07:13:16;;;;;;;18.63;11.63;;;13.90;98.60;;;;;;5075082;28;20044;-73
2021/09/17 07:15:43;;;;;;;16.63;11.38;;;14.00;98.50;;;;;;5071888;28;20185;-71
2021/09/17 07:18:10;;;;;;;14.90;11.25;;;14.10;98.40;;;;;;5061890;28;20060;-72
2021/09/17 07:20:38;;;;;;;15.07;10.75;;;14.20;98.00;;;;;;5071666;28;20076;-71
2021/09/17 07:23:05;;;;;;;15.60;12.30;;;14.30;98.10;;;;;;5065959;28;20044;-72
2021/09/17 07:25:33;;;;;;;16.83;11.32;;;14.40;97.70;;;;;;5070044;28;20076;-77
2021/09/17 07:28:00;;;;;;;16.40;10.82;;;14.50;97.40;;;;;;5085428;28;20050;-72
2021/09/17 07:30:27;;;;;;;20.05;10.82;;;14.60;97.10;;;;;;5065464;28;20052;-70
2021/09/17 07:32:54;;;;;;;14.20;9.50;;;14.60;97.00;;;;;;5088835;28;20050;-78
2021/09/17 07:35:21;;;;;;;74.03;55.63;;;14.70;97.10;;;;;;5037443;28;20356;-78
2021/09/17 07:37:49;;;;;;;23.50;17.05;;;14.80;97.00;;;;;;5062977;28;20072;-81
2021/09/17 07:40:16;;;;;;;16.25;10.45;;;14.90;97.30;;;;;;5073030;28;20135;-82
2021/09/17 07:42:45;;;;;;;11.80;8.05;;;15.00;96.70;;;;;;5045200;28;20071;-77
2021/09/17 07:45:12;;;;;;;12.90;9.07;;;15.10;96.60;;;;;;5084388;28;20083;-78
2021/09/17 07:47:39;;;;;;;10.52;6.85;;;15.20;96.60;;;;;;5072850;28;20044;-78
2021/09/17 07:50:07;;;;;;;14.80;7.60;;;15.40;96.30;;;;;;5073464;28;20579;-78
2021/09/17 07:52:34;;;;;;;9.55;6.32;;;15.50;95.90;;;;;;5051003;28;20412;-78
2021/09/17 07:55:02;;;;;;;9.07;5.95;;;15.60;96.00;;;;;;5041771;28;20539;-77
2021/09/17 07:57:30;;;;;;;6.75;4.57;;;15.80;95.90;;;;;;5053082;28;20151;-77
2021/09/17 07:59:57;;;;;;;9.70;5.07;;;15.90;94.90;;;;;;5070923;28;20048;-78
2021/09/17 08:02:24;;;;;;;7.13;4.47;;;16.10;94.60;;;;;;5053200;28;20385;-74
2021/09/17 08:04:52;;;;;;;8.30;4.30;;;16.20;94.80;;;;;;5071032;28;20056;-73
2021/09/17 08:07:19;;;;;;;7.18;4.13;;;16.20;94.20;;;;;;5062317;28;20048;-73
2021/09/17 08:09:46;;;;;;;6.55;3.60;;;16.20;94.10;;;;;;5073132;28;20471;-78
2021/09/17 08:12:13;;;;;;;8.77;4.07;;;16.20;94.10;;;;;;5071204;28;20087;-79
2021/09/17 08:14:40;;;;;;;6.82;4.10;;;16.10;93.20;;;;;;5052913;28;20415;-78
2021/09/17 08:17:07;;;;;;;10.88;3.92;;;16.10;94.20;;;;;;5063832;28;20040;-78
2021/09/17 08:19:34;;;;;;;6.10;3.15;;;16.00;93.60;;;;;;5071228;28;20106;-78
2021/09/17 08:22:02;;;;;;;5.13;2.80;;;16.00;93.50;;;;;;5062324;28;20064;-78
2021/09/17 08:24:31;;;;;;;13.73;8.43;;;16.00;93.70;;;;;;5073580;28;20133;-81
2021/09/17 08:27:00;;;;;;;8.68;5.78;;;16.00;93.90;;;;;;5090156;28;20495;-83
2021/09/17 08:29:28;;;;;;;15.13;4.50;;;16.00;93.50;;;;;;5083015;28;20068;-83
2021/09/17 08:31:56;;;;;;;7.40;3.47;;;16.00;93.60;;;;;;5062455;28;20172;-82
2021/09/17 08:34:23;;;;;;;4.75;2.70;;;16.00;93.30;;;;;;5051776;28;20170;-81
2021/09/17 08:36:50;;;;;;;12.75;3.50;;;16.00;93.10;;;;;;5055593;28;20066;-82
2021/09/17 08:39:17;;;;;;;6.30;2.83;;;16.10;93.60;;;;;;5037165;28;20048;-83
2021/09/17 08:41:44;;;;;;;5.78;2.10;;;16.20;93.30;;;;;;5056162;28;20049;-83
2021/09/17 08:44:12;;;;;;;3.58;2.05;;;16.30;93.40;;;;;;5060471;28;20040;-84
2021/09/17 08:46:41;;;;;;;3.85;2.03;;;16.50;93.70;;;;;;5069979;28;20051;-83
2021/09/17 08:49:09;;;;;;;6.93;2.33;;;16.60;93.30;;;;;;5060922;28;20091;-85
2021/09/17 08:51:37;;;;;;;9.57;2.50;;;16.80;92.90;;;;;;5057945;28;20041;-84
2021/09/17 08:54:04;;;;;;;6.72;2.90;;;16.90;92.40;;;;;;5053544;28;20097;-86
2021/09/17 08:56:32;;;;;;;7.78;2.45;;;17.10;92.40;;;;;;5063320;28;20399;-87
2021/09/17 08:59:00;;;;;;;3.17;2.00;;;17.30;91.50;;;;;;5053793;28;20119;-86
2021/09/17 09:01:32;;;;;;;5.80;1.98;;;17.40;91.00;;;;;;5044014;28;20102;-85
2021/09/17 09:04:02;;;;;;;5.60;2.00;;;17.50;91.40;;;;;;5046419;28;20045;-85
2021/09/17 09:06:36;;;;;;;4.03;1.50;;;17.60;91.50;;;;;;5058552;28;20044;-85
2021/09/17 09:09:17;;;;;;;4.93;2.10;;;17.70;89.80;;;;;;5042503;28;20132;-85
2021/09/17 09:11:51;;;;;;;4.22;2.00;;;17.80;89.90;;;;;;5062423;28;20052;-86
2021/09/17 09:14:18;;;;;;;3.78;1.40;;;17.90;89.60;;;;;;5061586;28;20059;-86
2021/09/17 09:16:56;;;;;;;4.82;1.50;;;18.10;89.40;;;;;;5062055;28;20198;-86
2021/09/17 09:19:34;;;;;;;2.55;1.35;;;18.20;88.10;;;;;;5070284;28;20179;-85
2021/09/17 09:22:07;;;;;;;3.60;1.45;;;18.20;85.10;;;;;;5056566;28;20074;-84
2021/09/17 09:24:42;;;;;;;2.85;1.20;;;18.20;85.20;;;;;;5073415;28;20719;-86
2021/09/17 09:27:17;;;;;;;3.60;1.48;;;18.20;86.60;;;;;;5040031;28;20407;-87
2021/09/17 09:29:46;;;;;;;3.38;1.30;;;18.30;84.10;;;;;;5073762;28;20152;-85
2021/09/17 09:32:29;;;;;;;2.83;1.58;;;18.30;84.70;;;;;;5073295;28;20666;-81
2021/09/17 09:35:06;;;;;;;3.58;1.50;;;18.40;83.40;;;;;;5055852;28;20128;-88
2021/09/17 09:37:36;;;;;;;3.95;1.55;;;18.60;82.70;;;;;;5056811;28;20048;-78
2021/09/17 09:40:07;;;;;;;;;;;18.70;83.70;;;;;;5040001;28;20089;-87
2021/09/17 09:42:41;;;;;;;3.60;1.38;;;18.70;79.60;;;;;;5067187;28;19928;-89
2021/09/17 09:45:13;;;;;;;5.15;1.50;;;18.80;80.10;;;;;;5039076;28;20128;-83
2021/09/17 09:47:41;;;;;;;3.40;1.60;;;18.90;82.50;;;;;;5055156;28;20499;-75
2021/09/17 09:50:10;;;;;;;3.60;1.58;;;19.00;83.00;;;;;;5064245;28;20048;-75
2021/09/17 09:52:37;;;;;;;2.63;1.20;;;19.20;80.90;;;;;;5055412;28;20084;-75
2021/09/17 09:55:06;;;;;;;3.45;1.05;;;19.30;79.00;;;;;;5057325;28;20110;-74
2021/09/17 09:57:33;;;;;;;2.70;1.20;;;19.30;79.10;;;;;;5093259;28;20105;-74
2021/09/17 10:00:03;;;;;;;4.38;1.60;;;19.40;80.00;;;;;;5093076;28;20048;-75
2021/09/17 10:02:31;;;;;;;5.32;2.13;;;19.50;78.50;;;;;;5081438;28;20091;-75
2021/09/17 10:04:59;;;;;;;3.70;1.38;;;19.60;78.30;;;;;;5072263;28;20092;-75
2021/09/17 10:07:29;;;;;;;3.55;1.58;;;19.60;77.70;;;;;;5082292;28;20048;-77
2021/09/17 10:09:57;;;;;;;2.40;1.10;;;19.80;77.80;;;;;;5056835;28;20044;-69
2021/09/17 10:12:24;;;;;;;39.33;31.65;;;19.90;77.60;;;;;;5080070;28;20495;-73
2021/09/17 10:14:52;;;;;;;10.02;6.95;;;20.00;77.20;;;;;;5067691;28;20044;-72
2021/09/17 10:17:22;;;;;;;3.88;2.20;;;20.00;76.10;;;;;;5055956;28;20080;-72
2021/09/17 10:19:50;;;;;;;2.83;2.00;;;20.10;75.80;;;;;;5060920;28;20040;-70
2021/09/17 10:22:37;;;;;;;4.40;2.00;;;20.10;74.70;;;;;;5058288;28;20055;-72
2021/09/17 10:25:17;;;;;;;8.77;4.38;;;20.30;74.70;;;;;;5071877;28;20056;-72
2021/09/17 10:27:58;;;;;;;;;;;20.40;72.90;;;;;;5073023;28;20119;-73
2021/09/17 10:30:26;;;;;;;3.30;1.55;;;20.40;74.80;;;;;;5053734;28;19963;-73
2021/09/17 10:32:53;;;;;;;3.38;1.70;;;20.50;76.60;;;;;;5061057;28;20045;-72
2021/09/17 10:35:21;;;;;;;3.78;1.40;;;20.50;73.90;;;;;;5071006;28;20441;-72
2021/09/17 10:38:03;;;;;;;2.92;1.42;;;20.60;75.00;;;;;;5073129;28;20045;-72
2021/09/17 10:40:54;;;;;;;4.75;1.90;;;20.70;75.50;;;;;;5059188;28;20492;-75
2021/09/17 10:43:29;;;;;;;4.13;1.30;;;20.90;73.00;;;;;;5063486;28;20119;-75
2021/09/17 10:45:59;;;;;;;3.75;1.67;;;21.10;73.50;;;;;;5083794;28;20052;-74
2021/09/17 10:48:28;;;;;;;13.38;9.57;;;21.30;74.50;;;;;;5073470;28;20044;-74
2021/09/17 10:50:57;;;;;;;6.65;2.55;;;21.40;74.00;;;;;;5043990;28;20084;-79
2021/09/17 10:53:40;;;;;;;8.02;1.58;;;21.50;73.40;;;;;;5041863;28;20143;-72
2021/09/17 10:56:13;;;;;;;4.22;2.15;;;21.50;71.40;;;;;;5069626;28;20056;-73
2021/09/17 10:58:44;;;;;;;4.50;1.60;;;21.50;73.40;;;;;;5054266;28;20045;-73
2021/09/17 11:01:13;;;;;;;2.35;1.25;;;21.50;71.60;;;;;;5072132;28;20155;-73
2021/09/17 11:06:21;;;;;;;4.20;1.45;;;21.60;71.10;;;;;;5071827;28;20052;-73
2021/09/17 11:08:55;;;;;;;4.47;1.52;;;21.70;70.10;;;;;;5071797;28;20389;-73
2021/09/17 11:11:22;;;;;;;3.67;1.35;;;21.80;71.30;;;;;;5054075;28;20056;-73
2021/09/17 11:13:49;;;;;;;3.05;1.77;;;21.80;71.50;;;;;;5071155;28;20135;-73
2021/09/17 11:16:17;;;;;;;2.88;1.60;;;21.80;70.20;;;;;;5053353;28;20467;-73
2021/09/17 11:18:57;;;;;;;;;;;21.80;68.50;;;;;;5053688;28;20060;-73
2021/09/17 11:21:24;;;;;;;2.53;1.75;;;21.70;67.50;;;;;;5053063;28;19960;-73
2021/09/17 11:23:52;;;;;;;3.13;1.75;;;21.60;70.60;;;;;;5071604;28;20076;-73
2021/09/17 11:26:24;;;;;;;3.60;1.75;;;21.60;70.90;;;;;;5053444;28;20056;-74
2021/09/17 11:29:07;;;;;;;4.68;1.60;;;21.70;68.90;;;;;;5053153;28;20044;-73
2021/09/17 11:31:54;;;;;;;3.10;1.42;;;21.80;70.80;;;;;;5053406;28;20052;-73
2021/09/17 11:34:23;;;;;;;4.07;1.55;;;21.70;69.70;;;;;;5070388;28;20505;-73
2021/09/17 11:36:51;;;;;;;;;;;21.70;68.60;;;;;;5054099;28;20048;-73
2021/09/17 11:39:23;;;;;;;3.17;1.70;;;21.70;68.10;;;;;;5069347;28;19926;-73
2021/09/17 11:42:00;;;;;;;2.65;1.73;;;21.70;69.70;;;;;;5053283;28;20095;-73
2021/09/17 11:44:38;;;;;;;4.93;1.80;;;21.70;70.30;;;;;;5053147;28;20049;-73
2021/09/17 11:47:10;;;;;;;2.20;1.70;;;21.80;69.70;;;;;;5054382;28;20048;-73
2021/09/17 11:49:38;;;;;;;3.50;1.73;;;22.00;70.80;;;;;;5052463;28;20053;-73
2021/09/17 11:52:09;;;;;;;3.38;2.25;;;22.10;69.50;;;;;;5070753;28;20052;-73
2021/09/17 11:54:37;;;;;;;3.00;1.60;;;22.20;69.60;;;;;;5053408;28;20053;-73
2021/09/17 11:57:05;;;;;;;3.45;2.00;;;22.10;69.70;;;;;;5052847;28;20154;-73
2021/09/17 11:59:33;;;;;;;3.23;1.83;;;22.20;69.80;;;;;;5070732;28;20151;-73
2021/09/17 12:02:12;;;;;;;2.25;1.48;;;22.20;69.30;;;;;;5053085;28;20293;-73
2021/09/17 12:04:41;;;;;;;4.10;2.45;;;22.20;67.30;;;;;;5051438;28;20553;-73
2021/09/17 12:07:11;;;;;;;3.50;2.03;;;22.20;70.20;;;;;;5053044;28;20399;-73
2021/09/17 12:09:40;;;;;;;4.07;1.95;;;22.30;69.70;;;;;;5052981;28;20045;-72
2021/09/17 12:12:07;;;;;;;4.85;3.03;;;22.40;69.80;;;;;;5070213;28;20433;-72
2021/09/17 12:14:34;;;;;;;3.83;2.17;;;22.40;67.90;;;;;;5052809;28;20088;-72
2021/09/17 12:17:10;;;;;;;3.85;2.08;;;22.50;66.80;;;;;;5052699;28;20155;-72
2021/09/17 12:19:57;;;;;;;2.30;1.70;;;22.40;66.40;;;;;;5070090;28;20045;-73
2021/09/17 12:22:38;;;;;;;3.60;1.42;;;22.40;65.00;;;;;;5071732;28;20163;-73
2021/09/17 12:25:11;;;;;;;8.50;6.53;;;22.40;67.00;;;;;;5064841;28;20382;-71
2021/09/17 12:27:43;;;;;;;3.63;2.60;;;22.30;69.00;;;;;;5069916;28;20052;-74
2021/09/17 12:30:12;;;;;;;4.18;2.33;;;22.40;69.50;;;;;;5052556;28;20145;-75
2021/09/17 12:32:40;;;;;;;3.03;1.70;;;22.50;68.90;;;;;;5069706;28;20472;-73
2021/09/17 12:35:17;;;;;;;4.30;1.80;;;22.60;69.50;;;;;;5069952;28;20045;-74
2021/09/17 12:37:54;;;;;;;3.60;1.83;;;22.60;66.10;;;;;;5052840;28;20412;-74
2021/09/17 12:40:22;;;;;;;3.08;1.90;;;22.50;65.70;;;;;;5069871;28;20045;-74
2021/09/17 12:43:02;;;;;;;2.88;2.22;;;22.40;67.30;;;;;;5052583;28;20494;-74
2021/09/17 12:45:30;;;;;;;1.90;1.40;;;22.40;67.20;;;;;;5052407;28;20045;-74